sensor_id;sensor_type;location;lat;lon;timestamp;pressure;altitude;pressure_sealevel;temperature;humidity
78431;BME280;67727;50.236;22.452;2023-12-28T00:01:52;100285.92;;;-1.36;80.45
78431;BME280;67727;50.236;22.452;2023-12-28T00:04:18;100286.86;;;-1.38;80.59
78431;BME280;67727;50.236;22.452;2023-12-28T00:06:45;100293.00;;;-1.36;80.56
78431;BME280;67727;50.236;22.452;2023-12-28T00:09:12;100277.80;;;-1.33;80.70
78431;BME280;67727;50.236;22.452;2023-12-28T00:11:39;100282.00;;;-1.31;80.83
78431;BME280;67727;50.236;22.452;2023-12-28T00:14:06;100285.40;;;-1.29;80.85
78431;BME280;67727;50.236;22.452;2023-12-28T00:16:33;100287.95;;;-1.29;80.91
78431;BME280;67727;50.236;22.452;2023-12-28T00:19:00;100292.29;;;-1.29;80.94
78431;BME280;67727;50.236;22.452;2023-12-28T00:21:29;100291.05;;;-1.31;80.98
78431;BME280;67727;50.236;22.452;2023-12-28T00:23:56;100291.57;;;-1.35;81.19
78431;BME280;67727;50.236;22.452;2023-12-28T00:26:23;100287.17;;;-1.40;81.21
78431;BME280;67727;50.236;22.452;2023-12-28T00:28:50;100285.55;;;-1.45;81.33
78431;BME280;67727;50.236;22.452;2023-12-28T00:31:17;100278.16;;;-1.49;81.29
78431;BME280;67727;50.236;22.452;2023-12-28T00:33:44;100271.39;;;-1.55;81.68
78431;BME280;67727;50.236;22.452;2023-12-28T00:36:11;100268.20;;;-1.60;81.93
78431;BME280;67727;50.236;22.452;2023-12-28T00:38:38;100269.02;;;-1.62;82.26
78431;BME280;67727;50.236;22.452;2023-12-28T00:41:06;100269.64;;;-1.64;82.37
78431;BME280;67727;50.236;22.452;2023-12-28T00:43:32;100275.08;;;-1.65;82.39
78431;BME280;67727;50.236;22.452;2023-12-28T00:45:59;100271.48;;;-1.66;82.36
78431;BME280;67727;50.236;22.452;2023-12-28T00:48:26;100277.88;;;-1.66;82.58
78431;BME280;67727;50.236;22.452;2023-12-28T00:50:53;100280.79;;;-1.65;82.43
78431;BME280;67727;50.236;22.452;2023-12-28T00:53:22;100272.86;;;-1.62;82.18
78431;BME280;67727;50.236;22.452;2023-12-28T00:55:49;100268.39;;;-1.60;82.58
78431;BME280;67727;50.236;22.452;2023-12-28T00:58:16;100269.33;;;-1.59;82.59
78431;BME280;67727;50.236;22.452;2023-12-28T01:00:43;100270.20;;;-1.58;82.51
78431;BME280;67727;50.236;22.452;2023-12-28T01:03:10;100267.64;;;-1.59;82.50
78431;BME280;67727;50.236;22.452;2023-12-28T01:05:36;100259.40;;;-1.61;82.67
78431;BME280;67727;50.236;22.452;2023-12-28T01:08:03;100259.14;;;-1.62;82.55
78431;BME280;67727;50.236;22.452;2023-12-28T01:10:31;100251.81;;;-1.64;82.58
78431;BME280;67727;50.236;22.452;2023-12-28T01:12:58;100250.34;;;-1.66;82.69
78431;BME280;67727;50.236;22.452;2023-12-28T01:15:24;100263.67;;;-1.66;82.59
78431;BME280;67727;50.236;22.452;2023-12-28T01:17:52;100254.98;;;-1.62;82.77
78431;BME280;67727;50.236;22.452;2023-12-28T01:20:19;100260.05;;;-1.57;82.54
78431;BME280;67727;50.236;22.452;2023-12-28T01:22:46;100266.27;;;-1.50;82.71
78431;BME280;67727;50.236;22.452;2023-12-28T01:25:13;100263.11;;;-1.44;82.49
78431;BME280;67727;50.236;22.452;2023-12-28T01:27:40;100257.64;;;-1.36;82.38
78431;BME280;67727;50.236;22.452;2023-12-28T01:30:07;100256.51;;;-1.28;82.21
78431;BME280;67727;50.236;22.452;2023-12-28T01:32:34;100254.02;;;-1.24;82.17
78431;BME280;67727;50.236;22.452;2023-12-28T01:35:02;100250.52;;;-1.20;81.96
78431;BME280;67727;50.236;22.452;2023-12-28T01:37:28;100248.39;;;-1.16;81.83
78431;BME280;67727;50.236;22.452;2023-12-28T01:39:57;100244.51;;;-1.15;81.78
78431;BME280;67727;50.236;22.452;2023-12-28T01:42:24;100235.25;;;-1.14;81.75
78431;BME280;67727;50.236;22.452;2023-12-28T01:44:51;100236.45;;;-1.14;81.65
78431;BME280;67727;50.236;22.452;2023-12-28T01:47:18;100229.84;;;-1.14;81.73
78431;BME280;67727;50.236;22.452;2023-12-28T01:49:46;100218.50;;;-1.12;81.92
78431;BME280;67727;50.236;22.452;2023-12-28T01:52:13;100210.98;;;-1.11;81.73
78431;BME280;67727;50.236;22.452;2023-12-28T01:54:41;100214.73;;;-1.07;81.63
78431;BME280;67727;50.236;22.452;2023-12-28T01:57:08;100212.87;;;-1.02;81.79
78431;BME280;67727;50.236;22.452;2023-12-28T01:59:35;100213.59;;;-0.97;81.66
78431;BME280;67727;50.236;22.452;2023-12-28T02:02:02;100202.04;;;-0.92;81.82
78431;BME280;67727;50.236;22.452;2023-12-28T02:04:29;100198.30;;;-0.88;82.01
78431;BME280;67727;50.236;22.452;2023-12-28T02:06:59;100182.79;;;-0.87;81.85
78431;BME280;67727;50.236;22.452;2023-12-28T02:09:27;100172.05;;;-0.87;81.93
78431;BME280;67727;50.236;22.452;2023-12-28T02:11:54;100175.73;;;-0.87;81.96
78431;BME280;67727;50.236;22.452;2023-12-28T02:14:22;100169.55;;;-0.88;82.06
78431;BME280;67727;50.236;22.452;2023-12-28T02:17:00;100157.56;;;-0.91;82.20
78431;BME280;67727;50.236;22.452;2023-12-28T02:19:47;100155.88;;;-0.92;82.16
78431;BME280;67727;50.236;22.452;2023-12-28T02:22:16;100146.20;;;-0.90;82.32
78431;BME280;67727;50.236;22.452;2023-12-28T02:27:25;100131.63;;;-0.84;82.21
78431;BME280;67727;50.236;22.452;2023-12-28T02:29:55;100130.23;;;-0.81;82.09
78431;BME280;67727;50.236;22.452;2023-12-28T02:32:31;100118.53;;;-0.79;82.25
78431;BME280;67727;50.236;22.452;2023-12-28T02:35:07;100113.95;;;-0.78;82.15
78431;BME280;67727;50.236;22.452;2023-12-28T02:37:37;100111.00;;;-0.75;82.21
78431;BME280;67727;50.236;22.452;2023-12-28T02:40:05;100110.63;;;-0.72;82.06
78431;BME280;67727;50.236;22.452;2023-12-28T02:42:33;100111.94;;;-0.71;82.30
78431;BME280;67727;50.236;22.452;2023-12-28T02:45:00;100113.13;;;-0.70;82.05
78431;BME280;67727;50.236;22.452;2023-12-28T02:47:27;100109.13;;;-0.70;81.89
78431;BME280;67727;50.236;22.452;2023-12-28T02:49:53;100101.69;;;-0.70;81.86
78431;BME280;67727;50.236;22.452;2023-12-28T02:52:20;100099.88;;;-0.72;81.72
78431;BME280;67727;50.236;22.452;2023-12-28T02:54:47;100093.99;;;-0.75;81.70
78431;BME280;67727;50.236;22.452;2023-12-28T02:57:14;100094.54;;;-0.78;81.83
78431;BME280;67727;50.236;22.452;2023-12-28T02:59:45;100087.92;;;-0.84;81.80
78431;BME280;67727;50.236;22.452;2023-12-28T03:02:12;100082.23;;;-0.88;81.86
78431;BME280;67727;50.236;22.452;2023-12-28T03:04:39;100072.61;;;-0.89;82.04
78431;BME280;67727;50.236;22.452;2023-12-28T03:07:08;100067.11;;;-0.90;82.18
78431;BME280;67727;50.236;22.452;2023-12-28T03:09:34;100073.14;;;-0.89;82.18
78431;BME280;67727;50.236;22.452;2023-12-28T03:12:01;100079.82;;;-0.88;82.22
78431;BME280;67727;50.236;22.452;2023-12-28T03:14:28;100083.48;;;-0.85;82.07
78431;BME280;67727;50.236;22.452;2023-12-28T03:16:55;100078.08;;;-0.82;82.09
78431;BME280;67727;50.236;22.452;2023-12-28T03:19:23;100075.80;;;-0.78;82.07
78431;BME280;67727;50.236;22.452;2023-12-28T03:21:50;100075.90;;;-0.77;81.95
78431;BME280;67727;50.236;22.452;2023-12-28T03:24:16;100074.31;;;-0.77;81.83
78431;BME280;67727;50.236;22.452;2023-12-28T03:26:43;100069.34;;;-0.78;82.07
78431;BME280;67727;50.236;22.452;2023-12-28T03:29:10;100063.52;;;-0.79;82.14
78431;BME280;67727;50.236;22.452;2023-12-28T03:31:40;100060.17;;;-0.81;82.14
78431;BME280;67727;50.236;22.452;2023-12-28T03:34:07;100055.29;;;-0.84;82.22
78431;BME280;67727;50.236;22.452;2023-12-28T03:36:34;100055.64;;;-0.84;82.06
78431;BME280;67727;50.236;22.452;2023-12-28T03:39:01;100052.84;;;-0.84;82.13
78431;BME280;67727;50.236;22.452;2023-12-28T03:41:30;100048.77;;;-0.82;82.29
78431;BME280;67727;50.236;22.452;2023-12-28T03:43:56;100045.46;;;-0.82;81.86
78431;BME280;67727;50.236;22.452;2023-12-28T03:46:23;100036.46;;;-0.79;81.80
78431;BME280;67727;50.236;22.452;2023-12-28T03:48:50;100040.52;;;-0.77;82.04
78431;BME280;67727;50.236;22.452;2023-12-28T03:51:17;100043.81;;;-0.74;81.68
78431;BME280;67727;50.236;22.452;2023-12-28T03:53:44;100041.27;;;-0.73;81.65
78431;BME280;67727;50.236;22.452;2023-12-28T03:56:22;100036.27;;;-0.73;81.55
78431;BME280;67727;50.236;22.452;2023-12-28T03:58:50;100037.70;;;-0.77;81.30
78431;BME280;67727;50.236;22.452;2023-12-28T04:01:21;100034.86;;;-0.82;81.53
78431;BME280;67727;50.236;22.452;2023-12-28T04:03:48;100030.78;;;-0.88;81.93
78431;BME280;67727;50.236;22.452;2023-12-28T04:06:16;100032.67;;;-0.94;82.04
78431;BME280;67727;50.236;22.452;2023-12-28T04:08:43;100028.25;;;-0.98;81.82
78431;BME280;67727;50.236;22.452;2023-12-28T04:11:10;100028.36;;;-1.00;81.72
78431;BME280;67727;50.236;22.452;2023-12-28T04:13:37;100022.83;;;-1.00;82.01
78431;BME280;67727;50.236;22.452;2023-12-28T04:16:04;100014.70;;;-0.97;81.68
78431;BME280;67727;50.236;22.452;2023-12-28T04:18:31;100008.23;;;-0.94;81.76
78431;BME280;67727;50.236;22.452;2023-12-28T04:20:59;100002.00;;;-0.91;81.83
78431;BME280;67727;50.236;22.452;2023-12-28T04:23:26;99995.59;;;-0.89;81.64
78431;BME280;67727;50.236;22.452;2023-12-28T04:25:53;99989.10;;;-0.88;81.69
78431;BME280;67727;50.236;22.452;2023-12-28T04:28:20;99987.69;;;-0.87;81.70
78431;BME280;67727;50.236;22.452;2023-12-28T04:30:47;99980.82;;;-0.88;81.63
78431;BME280;67727;50.236;22.452;2023-12-28T04:33:16;99977.92;;;-0.89;81.54
78431;BME280;67727;50.236;22.452;2023-12-28T04:35:43;99976.45;;;-0.90;81.80
78431;BME280;67727;50.236;22.452;2023-12-28T04:38:10;99979.51;;;-0.92;81.65
78431;BME280;67727;50.236;22.452;2023-12-28T04:40:37;99975.48;;;-0.94;81.65
78431;BME280;67727;50.236;22.452;2023-12-28T04:43:04;99975.10;;;-0.96;81.66
78431;BME280;67727;50.236;22.452;2023-12-28T04:45:31;99969.80;;;-0.98;81.70
78431;BME280;67727;50.236;22.452;2023-12-28T04:47:57;99966.83;;;-0.97;81.74
78431;BME280;67727;50.236;22.452;2023-12-28T04:50:24;99964.52;;;-0.97;81.84
78431;BME280;67727;50.236;22.452;2023-12-28T04:52:51;99960.36;;;-0.97;81.85
78431;BME280;67727;50.236;22.452;2023-12-28T04:55:18;99956.85;;;-0.96;81.72
78431;BME280;67727;50.236;22.452;2023-12-28T04:57:45;99956.85;;;-0.96;81.77
78431;BME280;67727;50.236;22.452;2023-12-28T05:00:12;99960.67;;;-0.94;81.95
78431;BME280;67727;50.236;22.452;2023-12-28T05:02:39;99964.35;;;-0.91;82.12
78431;BME280;67727;50.236;22.452;2023-12-28T05:05:06;99963.38;;;-0.89;82.12
78431;BME280;67727;50.236;22.452;2023-12-28T05:07:34;99957.64;;;-0.92;82.04
78431;BME280;67727;50.236;22.452;2023-12-28T05:10:01;99959.08;;;-0.95;81.87
78431;BME280;67727;50.236;22.452;2023-12-28T05:12:28;99956.92;;;-1.00;81.82
78431;BME280;67727;50.236;22.452;2023-12-28T05:14:56;99957.73;;;-1.04;82.12
78431;BME280;67727;50.236;22.452;2023-12-28T05:17:23;99959.20;;;-1.08;82.14
78431;BME280;67727;50.236;22.452;2023-12-28T05:19:49;99953.55;;;-1.12;82.33
78431;BME280;67727;50.236;22.452;2023-12-28T05:22:16;99951.94;;;-1.14;82.79
78431;BME280;67727;50.236;22.452;2023-12-28T05:24:43;99950.72;;;-1.14;82.80
78431;BME280;67727;50.236;22.452;2023-12-28T05:27:11;99951.16;;;-1.13;82.80
78431;BME280;67727;50.236;22.452;2023-12-28T05:29:38;99948.27;;;-1.11;82.61
78431;BME280;67727;50.236;22.452;2023-12-28T05:32:05;99945.23;;;-1.10;82.34
78431;BME280;67727;50.236;22.452;2023-12-28T05:34:32;99942.57;;;-1.09;82.60
78431;BME280;67727;50.236;22.452;2023-12-28T05:36:59;99944.50;;;-1.06;82.45
78431;BME280;67727;50.236;22.452;2023-12-28T05:39:26;99938.75;;;-1.03;82.90
78431;BME280;67727;50.236;22.452;2023-12-28T05:41:53;99939.48;;;-1.01;82.70
78431;BME280;67727;50.236;22.452;2023-12-28T05:44:20;99939.06;;;-1.00;82.84
78431;BME280;67727;50.236;22.452;2023-12-28T05:46:47;99940.80;;;-1.00;82.79
78431;BME280;67727;50.236;22.452;2023-12-28T05:49:14;99939.80;;;-1.03;82.63
78431;BME280;67727;50.236;22.452;2023-12-28T05:51:41;99930.50;;;-1.07;82.88
78431;BME280;67727;50.236;22.452;2023-12-28T05:54:08;99933.59;;;-1.12;82.84
78431;BME280;67727;50.236;22.452;2023-12-28T05:56:35;99932.66;;;-1.16;82.86
78431;BME280;67727;50.236;22.452;2023-12-28T05:59:02;99927.90;;;-1.18;83.11
78431;BME280;67727;50.236;22.452;2023-12-28T06:01:29;99930.73;;;-1.19;83.11
78431;BME280;67727;50.236;22.452;2023-12-28T06:03:56;99921.50;;;-1.18;83.15
78431;BME280;67727;50.236;22.452;2023-12-28T06:06:22;99919.90;;;-1.17;83.12
78431;BME280;67727;50.236;22.452;2023-12-28T06:08:49;99922.31;;;-1.17;83.07
78431;BME280;67727;50.236;22.452;2023-12-28T06:11:17;99927.95;;;-1.16;83.11
78431;BME280;67727;50.236;22.452;2023-12-28T06:13:44;99924.12;;;-1.13;82.96
78431;BME280;67727;50.236;22.452;2023-12-28T06:16:11;99922.30;;;-1.12;82.85
78431;BME280;67727;50.236;22.452;2023-12-28T06:18:38;99924.64;;;-1.13;82.64
78431;BME280;67727;50.236;22.452;2023-12-28T06:21:05;99918.98;;;-1.14;82.84
78431;BME280;67727;50.236;22.452;2023-12-28T06:23:32;99928.23;;;-1.15;82.61
78431;BME280;67727;50.236;22.452;2023-12-28T06:26:04;99922.55;;;-1.18;82.67
78431;BME280;67727;50.236;22.452;2023-12-28T06:28:32;99923.34;;;-1.20;83.06
78431;BME280;67727;50.236;22.452;2023-12-28T06:30:59;99926.52;;;-1.21;83.27
78431;BME280;67727;50.236;22.452;2023-12-28T06:33:28;99924.48;;;-1.22;83.44
78431;BME280;67727;50.236;22.452;2023-12-28T06:35:55;99928.94;;;-1.21;83.64
78431;BME280;67727;50.236;22.452;2023-12-28T06:38:25;99927.63;;;-1.19;83.61
78431;BME280;67727;50.236;22.452;2023-12-28T06:40:52;99929.24;;;-1.17;83.55
78431;BME280;67727;50.236;22.452;2023-12-28T06:43:18;99923.16;;;-1.14;83.40
78431;BME280;67727;50.236;22.452;2023-12-28T06:45:45;99924.23;;;-1.12;83.45
78431;BME280;67727;50.236;22.452;2023-12-28T06:48:12;99922.39;;;-1.08;83.51
78431;BME280;67727;50.236;22.452;2023-12-28T06:50:39;99918.67;;;-1.03;83.40
78431;BME280;67727;50.236;22.452;2023-12-28T06:53:06;99912.01;;;-1.00;83.37
78431;BME280;67727;50.236;22.452;2023-12-28T06:55:33;99908.23;;;-0.95;83.34
78431;BME280;67727;50.236;22.452;2023-12-28T06:58:01;99907.21;;;-0.90;83.52
78431;BME280;67727;50.236;22.452;2023-12-28T07:00:28;99910.21;;;-0.86;83.50
78431;BME280;67727;50.236;22.452;2023-12-28T07:02:55;99914.32;;;-0.82;83.80
78431;BME280;67727;50.236;22.452;2023-12-28T07:05:22;99914.27;;;-0.78;83.95
78431;BME280;67727;50.236;22.452;2023-12-28T07:07:49;99914.72;;;-0.74;84.19
78431;BME280;67727;50.236;22.452;2023-12-28T07:10:16;99918.02;;;-0.69;84.56
78431;BME280;67727;50.236;22.452;2023-12-28T07:12:43;99922.78;;;-0.60;85.05
78431;BME280;67727;50.236;22.452;2023-12-28T07:15:09;99918.89;;;-0.48;85.24
78431;BME280;67727;50.236;22.452;2023-12-28T07:17:40;99912.52;;;-0.36;85.43
78431;BME280;67727;50.236;22.452;2023-12-28T07:20:08;99913.79;;;-0.23;85.62
78431;BME280;67727;50.236;22.452;2023-12-28T07:22:38;99911.52;;;-0.11;85.79
78431;BME280;67727;50.236;22.452;2023-12-28T07:25:05;99904.64;;;0.04;86.39
78431;BME280;67727;50.236;22.452;2023-12-28T07:27:34;99898.95;;;0.21;86.83
78431;BME280;67727;50.236;22.452;2023-12-28T07:30:01;99896.00;;;0.41;87.56
78431;BME280;67727;50.236;22.452;2023-12-28T07:32:29;99891.79;;;0.64;87.63
78431;BME280;67727;50.236;22.452;2023-12-28T07:34:56;99885.40;;;0.85;87.93
78431;BME280;67727;50.236;22.452;2023-12-28T07:37:23;99874.73;;;1.05;87.45
78431;BME280;67727;50.236;22.452;2023-12-28T07:39:50;99869.64;;;1.24;87.44
78431;BME280;67727;50.236;22.452;2023-12-28T07:42:16;99874.48;;;1.44;87.44
78431;BME280;67727;50.236;22.452;2023-12-28T07:44:43;99876.96;;;1.64;87.55
78431;BME280;67727;50.236;22.452;2023-12-28T07:47:10;99881.66;;;1.85;87.33
78431;BME280;67727;50.236;22.452;2023-12-28T07:49:39;99883.77;;;2.05;87.01
78431;BME280;67727;50.236;22.452;2023-12-28T07:52:06;99881.84;;;2.21;86.52
78431;BME280;67727;50.236;22.452;2023-12-28T07:54:33;99876.95;;;2.37;86.21
78431;BME280;67727;50.236;22.452;2023-12-28T07:57:00;99875.30;;;2.54;86.04
78431;BME280;67727;50.236;22.452;2023-12-28T07:59:27;99877.97;;;2.70;85.33
78431;BME280;67727;50.236;22.452;2023-12-28T08:01:55;99873.22;;;2.88;85.31
78431;BME280;67727;50.236;22.452;2023-12-28T08:04:23;99870.55;;;3.04;85.01
78431;BME280;67727;50.236;22.452;2023-12-28T08:06:50;99872.77;;;3.18;84.52
78431;BME280;67727;50.236;22.452;2023-12-28T08:09:17;99867.56;;;3.30;84.27
78431;BME280;67727;50.236;22.452;2023-12-28T08:11:44;99865.95;;;3.41;83.89
78431;BME280;67727;50.236;22.452;2023-12-28T08:14:12;99865.98;;;3.51;83.60
78431;BME280;67727;50.236;22.452;2023-12-28T08:16:39;99868.67;;;3.63;83.36
78431;BME280;67727;50.236;22.452;2023-12-28T08:19:05;99861.72;;;3.75;83.03
78431;BME280;67727;50.236;22.452;2023-12-28T08:21:33;99848.46;;;3.89;82.69
78431;BME280;67727;50.236;22.452;2023-12-28T08:24:00;99851.10;;;4.05;82.47
78431;BME280;67727;50.236;22.452;2023-12-28T08:26:27;99856.70;;;4.20;81.51
78431;BME280;67727;50.236;22.452;2023-12-28T08:28:53;99854.38;;;4.32;81.35
78431;BME280;67727;50.236;22.452;2023-12-28T08:31:20;99853.70;;;4.48;81.09
78431;BME280;67727;50.236;22.452;2023-12-28T08:33:48;99861.33;;;4.61;80.42
78431;BME280;67727;50.236;22.452;2023-12-28T08:36:15;99860.77;;;4.71;80.38
78431;BME280;67727;50.236;22.452;2023-12-28T08:38:44;99859.21;;;4.81;79.89
78431;BME280;67727;50.236;22.452;2023-12-28T08:41:20;99860.98;;;4.88;79.57
78431;BME280;67727;50.236;22.452;2023-12-28T08:43:48;99863.08;;;4.98;79.20
78431;BME280;67727;50.236;22.452;2023-12-28T08:46:14;99863.61;;;5.06;78.75
78431;BME280;67727;50.236;22.452;2023-12-28T08:48:42;99867.08;;;5.14;78.69
78431;BME280;67727;50.236;22.452;2023-12-28T08:51:09;99863.45;;;5.26;78.32
78431;BME280;67727;50.236;22.452;2023-12-28T08:53:37;99856.58;;;5.37;78.01
78431;BME280;67727;50.236;22.452;2023-12-28T08:56:16;99846.45;;;5.48;77.75
78431;BME280;67727;50.236;22.452;2023-12-28T08:58:44;99840.96;;;5.60;77.22
78431;BME280;67727;50.236;22.452;2023-12-28T09:01:20;99838.26;;;5.73;76.94
78431;BME280;67727;50.236;22.452;2023-12-28T09:03:53;99838.60;;;5.84;76.17
78431;BME280;67727;50.236;22.452;2023-12-28T09:06:21;99841.36;;;5.93;76.24
78431;BME280;67727;50.236;22.452;2023-12-28T09:08:50;99836.46;;;6.00;75.93
78431;BME280;67727;50.236;22.452;2023-12-28T09:11:18;99841.54;;;6.08;75.49
78431;BME280;67727;50.236;22.452;2023-12-28T09:13:45;99841.59;;;6.14;75.14
78431;BME280;67727;50.236;22.452;2023-12-28T09:16:14;99836.20;;;6.23;74.77
78431;BME280;67727;50.236;22.452;2023-12-28T09:18:41;99827.33;;;6.34;74.42
78431;BME280;67727;50.236;22.452;2023-12-28T09:21:09;99825.64;;;6.44;73.84
78431;BME280;67727;50.236;22.452;2023-12-28T09:23:37;99822.55;;;6.54;73.93
78431;BME280;67727;50.236;22.452;2023-12-28T09:26:06;99819.89;;;6.63;73.41
78431;BME280;67727;50.236;22.452;2023-12-28T09:28:34;99812.77;;;6.71;73.41
78431;BME280;67727;50.236;22.452;2023-12-28T09:31:02;99818.67;;;6.77;72.91
78431;BME280;67727;50.236;22.452;2023-12-28T09:33:29;99813.98;;;6.83;72.67
78431;BME280;67727;50.236;22.452;2023-12-28T09:35:56;99816.67;;;6.89;72.43
78431;BME280;67727;50.236;22.452;2023-12-28T09:38:23;99815.93;;;6.95;72.59
78431;BME280;67727;50.236;22.452;2023-12-28T09:40:52;99812.71;;;7.02;72.00
78431;BME280;67727;50.236;22.452;2023-12-28T09:43:24;99808.91;;;7.07;71.57
78431;BME280;67727;50.236;22.452;2023-12-28T09:45:52;99812.19;;;7.13;71.03
78431;BME280;67727;50.236;22.452;2023-12-28T09:48:20;99814.52;;;7.23;71.47
78431;BME280;67727;50.236;22.452;2023-12-28T09:50:52;99813.95;;;7.32;71.60
78431;BME280;67727;50.236;22.452;2023-12-28T09:53:24;99815.80;;;7.41;70.92
78431;BME280;67727;50.236;22.452;2023-12-28T09:55:52;99809.95;;;7.48;70.60
78431;BME280;67727;50.236;22.452;2023-12-28T09:58:21;99803.08;;;7.53;70.29
78431;BME280;67727;50.236;22.452;2023-12-28T10:00:49;99797.30;;;7.60;70.45
78431;BME280;67727;50.236;22.452;2023-12-28T10:03:17;99802.63;;;7.65;70.04
78431;BME280;67727;50.236;22.452;2023-12-28T10:05:45;99799.48;;;7.70;70.25
78431;BME280;67727;50.236;22.452;2023-12-28T10:08:13;99797.81;;;7.74;70.37
78431;BME280;67727;50.236;22.452;2023-12-28T10:10:42;99792.43;;;7.80;70.00
78431;BME280;67727;50.236;22.452;2023-12-28T10:13:12;99792.90;;;7.87;69.77
78431;BME280;67727;50.236;22.452;2023-12-28T10:15:39;99790.89;;;7.95;69.39
78431;BME280;67727;50.236;22.452;2023-12-28T10:18:06;99787.85;;;8.05;69.35
78431;BME280;67727;50.236;22.452;2023-12-28T10:20:33;99782.88;;;8.15;68.65
78431;BME280;67727;50.236;22.452;2023-12-28T10:23:00;99783.08;;;8.25;68.14
78431;BME280;67727;50.236;22.452;2023-12-28T10:25:27;99779.06;;;8.35;68.36
78431;BME280;67727;50.236;22.452;2023-12-28T10:27:54;99774.66;;;8.43;67.70
78431;BME280;67727;50.236;22.452;2023-12-28T10:30:21;99768.98;;;8.52;67.00
78431;BME280;67727;50.236;22.452;2023-12-28T10:32:48;99767.70;;;8.61;67.10
78431;BME280;67727;50.236;22.452;2023-12-28T10:35:15;99765.70;;;8.68;66.77
78431;BME280;67727;50.236;22.452;2023-12-28T10:37:43;99759.38;;;8.77;66.69
78431;BME280;67727;50.236;22.452;2023-12-28T10:40:13;99756.99;;;8.84;65.52
78431;BME280;67727;50.236;22.452;2023-12-28T10:43:04;99764.75;;;8.92;65.80
78431;BME280;67727;50.236;22.452;2023-12-28T10:45:33;99758.87;;;9.01;66.15
78431;BME280;67727;50.236;22.452;2023-12-28T10:48:10;99750.38;;;9.06;65.22
78431;BME280;67727;50.236;22.452;2023-12-28T10:50:50;99755.65;;;9.14;65.27
78431;BME280;67727;50.236;22.452;2023-12-28T10:53:33;99752.84;;;9.24;65.48
78431;BME280;67727;50.236;22.452;2023-12-28T10:59:09;99733.48;;;9.43;65.12
78431;BME280;67727;50.236;22.452;2023-12-28T11:01:41;99739.02;;;9.50;64.30
78431;BME280;67727;50.236;22.452;2023-12-28T11:04:24;99741.09;;;9.57;64.71
78431;BME280;67727;50.236;22.452;2023-12-28T11:06:56;99738.68;;;9.63;63.46
78431;BME280;67727;50.236;22.452;2023-12-28T11:09:26;99735.60;;;9.68;64.21
78431;BME280;67727;50.236;22.452;2023-12-28T11:11:54;99731.35;;;9.73;64.14
78431;BME280;67727;50.236;22.452;2023-12-28T11:14:22;99721.85;;;9.78;63.37
78431;BME280;67727;50.236;22.452;2023-12-28T11:16:50;99715.84;;;9.81;63.56
78431;BME280;67727;50.236;22.452;2023-12-28T11:19:18;99712.90;;;9.84;63.46
78431;BME280;67727;50.236;22.452;2023-12-28T11:21:48;99717.55;;;9.86;63.32
78431;BME280;67727;50.236;22.452;2023-12-28T11:24:16;99716.61;;;9.88;62.61
78431;BME280;67727;50.236;22.452;2023-12-28T11:26:44;99718.42;;;9.91;63.01
78431;BME280;67727;50.236;22.452;2023-12-28T11:29:12;99713.95;;;9.93;62.80
78431;BME280;67727;50.236;22.452;2023-12-28T11:31:38;99710.02;;;9.96;63.07
78431;BME280;67727;50.236;22.452;2023-12-28T11:34:05;99711.02;;;9.99;62.75
78431;BME280;67727;50.236;22.452;2023-12-28T11:36:35;99708.61;;;10.01;62.07
78431;BME280;67727;50.236;22.452;2023-12-28T11:39:05;99705.79;;;10.04;62.55
78431;BME280;67727;50.236;22.452;2023-12-28T11:41:34;99708.45;;;10.07;62.91
78431;BME280;67727;50.236;22.452;2023-12-28T11:44:03;99710.18;;;10.09;62.94
78431;BME280;67727;50.236;22.452;2023-12-28T11:46:32;99711.89;;;10.12;61.97
78431;BME280;67727;50.236;22.452;2023-12-28T11:49:06;99709.99;;;10.13;61.99
78431;BME280;67727;50.236;22.452;2023-12-28T11:51:35;99705.90;;;10.15;61.87
78431;BME280;67727;50.236;22.452;2023-12-28T11:54:04;99704.27;;;10.15;61.17
78431;BME280;67727;50.236;22.452;2023-12-28T11:56:31;99708.31;;;10.15;61.10
78431;BME280;67727;50.236;22.452;2023-12-28T11:58:59;99711.55;;;10.14;61.29
78431;BME280;67727;50.236;22.452;2023-12-28T12:01:26;99712.89;;;10.14;61.67
78431;BME280;67727;50.236;22.452;2023-12-28T12:03:53;99715.74;;;10.13;61.76
78431;BME280;67727;50.236;22.452;2023-12-28T12:06:20;99701.70;;;10.11;61.57
78431;BME280;67727;50.236;22.452;2023-12-28T12:08:47;99697.77;;;10.09;60.95
78431;BME280;67727;50.236;22.452;2023-12-28T12:11:13;99693.95;;;10.07;61.05
78431;BME280;67727;50.236;22.452;2023-12-28T12:13:40;99687.05;;;10.06;60.62
78431;BME280;67727;50.236;22.452;2023-12-28T12:16:07;99692.67;;;10.05;61.29
78431;BME280;67727;50.236;22.452;2023-12-28T12:18:35;99688.70;;;10.04;61.44
78431;BME280;67727;50.236;22.452;2023-12-28T12:21:02;99690.49;;;10.02;61.45
78431;BME280;67727;50.236;22.452;2023-12-28T12:23:29;99690.41;;;10.00;61.45
78431;BME280;67727;50.236;22.452;2023-12-28T12:25:57;99687.45;;;9.98;61.62
78431;BME280;67727;50.236;22.452;2023-12-28T12:28:25;99687.15;;;9.96;61.74
78431;BME280;67727;50.236;22.452;2023-12-28T12:30:55;99683.66;;;9.94;61.76
78431;BME280;67727;50.236;22.452;2023-12-28T12:33:25;99682.33;;;9.90;61.50
78431;BME280;67727;50.236;22.452;2023-12-28T12:35:53;99686.94;;;9.87;61.74
78431;BME280;67727;50.236;22.452;2023-12-28T12:38:21;99684.52;;;9.83;61.48
78431;BME280;67727;50.236;22.452;2023-12-28T12:40:51;99682.92;;;9.80;61.31
78431;BME280;67727;50.236;22.452;2023-12-28T12:43:18;99672.67;;;9.77;61.57
78431;BME280;67727;50.236;22.452;2023-12-28T12:45:46;99664.00;;;9.73;61.20
78431;BME280;67727;50.236;22.452;2023-12-28T12:48:13;99669.31;;;9.68;61.05
78431;BME280;67727;50.236;22.452;2023-12-28T12:50:40;99672.10;;;9.64;61.22
78431;BME280;67727;50.236;22.452;2023-12-28T12:53:08;99673.27;;;9.59;60.86
78431;BME280;67727;50.236;22.452;2023-12-28T12:55:36;99672.45;;;9.56;61.18
78431;BME280;67727;50.236;22.452;2023-12-28T12:58:05;99675.25;;;9.51;60.91
78431;BME280;67727;50.236;22.452;2023-12-28T13:00:32;99676.55;;;9.47;61.39